sensor_id;sensor_type;location;lat;lon;timestamp;P1;durP1;ratioP1;P2;durP2;ratioP2
26530;SDS011;14201;43.188;24.160;2023-06-22T00:01:52;7.97;;;6.63;;
26530;SDS011;14201;43.188;24.160;2023-06-22T00:04:18;10.02;;;8.18;;
26530;SDS011;14201;43.188;24.160;2023-06-22T00:06:44;12.30;;;7.82;;
26530;SDS011;14201;43.188;24.160;2023-06-22T00:09:09;9.00;;;7.78;;
26530;SDS011;14201;43.188;24.160;2023-06-22T00:11:36;8.90;;;7.80;;
26530;SDS011;14201;43.188;24.160;2023-06-22T00:14:02;9.93;;;7.78;;
26530;SDS011;14201;43.188;24.160;2023-06-22T00:16:28;11.43;;;8.52;;
26530;SDS011;14201;43.188;24.160;2023-06-22T00:18:54;12.45;;;8.80;;
26530;SDS011;14201;43.188;24.160;2023-06-22T00:21:20;10.05;;;8.38;;
26530;SDS011;14201;43.188;24.160;2023-06-22T00:23:45;11.73;;;8.57;;
26530;SDS011;14201;43.188;24.160;2023-06-22T00:26:12;15.82;;;8.77;;
26530;SDS011;14201;43.188;24.160;2023-06-22T00:28:38;10.35;;;8.30;;
26530;SDS011;14201;43.188;24.160;2023-06-22T00:31:04;11.07;;;9.57;;
26530;SDS011;14201;43.188;24.160;2023-06-22T00:33:29;10.00;;;8.48;;
26530;SDS011;14201;43.188;24.160;2023-06-22T00:35:56;17.02;;;9.30;;
26530;SDS011;14201;43.188;24.160;2023-06-22T00:38:22;11.45;;;9.00;;
26530;SDS011;14201;43.188;24.160;2023-06-22T00:40:48;12.70;;;9.07;;
26530;SDS011;14201;43.188;24.160;2023-06-22T00:43:13;9.98;;;9.07;;
26530;SDS011;14201;43.188;24.160;2023-06-22T00:45:39;11.70;;;8.77;;
26530;SDS011;14201;43.188;24.160;2023-06-22T00:48:06;10.23;;;9.07;;
26530;SDS011;14201;43.188;24.160;2023-06-22T00:50:33;12.73;;;10.20;;
26530;SDS011;14201;43.188;24.160;2023-06-22T00:53:01;10.00;;;9.00;;
26530;SDS011;14201;43.188;24.160;2023-06-22T00:55:33;12.85;;;9.95;;
26530;SDS011;14201;43.188;24.160;2023-06-22T00:58:02;12.10;;;9.48;;
26530;SDS011;14201;43.188;24.160;2023-06-22T01:00:35;13.10;;;9.27;;
26530;SDS011;14201;43.188;24.160;2023-06-22T01:03:02;11.23;;;9.32;;
26530;SDS011;14201;43.188;24.160;2023-06-22T01:05:28;11.52;;;7.72;;
26530;SDS011;14201;43.188;24.160;2023-06-22T01:13:26;12.45;;;9.50;;
26530;SDS011;14201;43.188;24.160;2023-06-22T01:16:00;10.65;;;8.77;;
26530;SDS011;14201;43.188;24.160;2023-06-22T01:18:30;10.50;;;8.85;;
26530;SDS011;14201;43.188;24.160;2023-06-22T01:20:58;11.57;;;9.20;;
26530;SDS011;14201;43.188;24.160;2023-06-22T01:23:29;9.57;;;8.57;;
26530;SDS011;14201;43.188;24.160;2023-06-22T01:29:04;14.15;;;9.43;;
26530;SDS011;14201;43.188;24.160;2023-06-22T01:31:31;13.70;;;9.95;;
26530;SDS011;14201;43.188;24.160;2023-06-22T01:34:01;11.88;;;9.07;;
26530;SDS011;14201;43.188;24.160;2023-06-22T01:36:30;12.80;;;9.30;;
26530;SDS011;14201;43.188;24.160;2023-06-22T01:38:57;10.63;;;9.00;;
26530;SDS011;14201;43.188;24.160;2023-06-22T01:41:25;9.77;;;8.77;;
26530;SDS011;14201;43.188;24.160;2023-06-22T01:43:52;9.65;;;8.60;;
26530;SDS011;14201;43.188;24.160;2023-06-22T01:46:20;9.07;;;8.18;;
26530;SDS011;14201;43.188;24.160;2023-06-22T01:48:47;13.93;;;9.18;;
26530;SDS011;14201;43.188;24.160;2023-06-22T01:51:13;9.73;;;8.63;;
26530;SDS011;14201;43.188;24.160;2023-06-22T01:53:39;11.60;;;9.13;;
26530;SDS011;14201;43.188;24.160;2023-06-22T01:56:05;10.85;;;9.20;;
26530;SDS011;14201;43.188;24.160;2023-06-22T01:58:31;10.88;;;8.63;;
26530;SDS011;14201;43.188;24.160;2023-06-22T02:01:05;16.70;;;9.27;;
26530;SDS011;14201;43.188;24.160;2023-06-22T02:03:34;10.10;;;8.32;;
26530;SDS011;14201;43.188;24.160;2023-06-22T02:06:23;10.13;;;8.80;;
26530;SDS011;14201;43.188;24.160;2023-06-22T02:08:54;9.48;;;8.48;;
26530;SDS011;14201;43.188;24.160;2023-06-22T02:11:22;12.75;;;9.48;;
26530;SDS011;14201;43.188;24.160;2023-06-22T02:16:18;10.68;;;9.00;;
26530;SDS011;14201;43.188;24.160;2023-06-22T02:18:50;10.73;;;9.48;;
26530;SDS011;14201;43.188;24.160;2023-06-22T02:21:20;12.48;;;8.70;;
26530;SDS011;14201;43.188;24.160;2023-06-22T02:23:46;12.15;;;9.23;;
26530;SDS011;14201;43.188;24.160;2023-06-22T02:26:12;9.32;;;8.32;;
26530;SDS011;14201;43.188;24.160;2023-06-22T02:28:38;10.88;;;8.40;;
26530;SDS011;14201;43.188;24.160;2023-06-22T02:31:03;10.23;;;8.65;;
26530;SDS011;14201;43.188;24.160;2023-06-22T02:33:29;11.98;;;8.68;;
26530;SDS011;14201;43.188;24.160;2023-06-22T02:35:55;11.80;;;8.88;;
26530;SDS011;14201;43.188;24.160;2023-06-22T02:38:21;10.60;;;8.07;;
26530;SDS011;14201;43.188;24.160;2023-06-22T02:40:48;13.07;;;9.40;;
26530;SDS011;14201;43.188;24.160;2023-06-22T02:43:14;10.02;;;8.55;;
26530;SDS011;14201;43.188;24.160;2023-06-22T02:45:39;13.38;;;9.23;;
26530;SDS011;14201;43.188;24.160;2023-06-22T02:48:05;15.38;;;9.25;;
26530;SDS011;14201;43.188;24.160;2023-06-22T02:50:30;10.75;;;9.07;;
26530;SDS011;14201;43.188;24.160;2023-06-22T02:52:56;12.23;;;9.00;;
26530;SDS011;14201;43.188;24.160;2023-06-22T02:55:23;11.50;;;9.13;;
26530;SDS011;14201;43.188;24.160;2023-06-22T02:57:49;13.82;;;9.32;;
26530;SDS011;14201;43.188;24.160;2023-06-22T03:00:18;11.20;;;9.27;;
26530;SDS011;14201;43.188;24.160;2023-06-22T03:02:48;12.82;;;10.15;;
26530;SDS011;14201;43.188;24.160;2023-06-22T03:05:14;10.55;;;9.15;;
26530;SDS011;14201;43.188;24.160;2023-06-22T03:07:45;18.88;;;9.48;;
26530;SDS011;14201;43.188;24.160;2023-06-22T03:10:12;10.02;;;8.73;;
26530;SDS011;14201;43.188;24.160;2023-06-22T03:12:38;16.45;;;9.05;;
26530;SDS011;14201;43.188;24.160;2023-06-22T03:15:08;11.10;;;8.80;;
26530;SDS011;14201;43.188;24.160;2023-06-22T03:17:35;9.60;;;8.43;;
26530;SDS011;14201;43.188;24.160;2023-06-22T03:20:02;11.85;;;8.73;;
26530;SDS011;14201;43.188;24.160;2023-06-22T03:22:35;10.88;;;8.05;;
26530;SDS011;14201;43.188;24.160;2023-06-22T03:25:02;10.70;;;8.32;;
26530;SDS011;14201;43.188;24.160;2023-06-22T03:27:28;10.27;;;7.97;;
26530;SDS011;14201;43.188;24.160;2023-06-22T03:29:53;9.68;;;8.23;;
26530;SDS011;14201;43.188;24.160;2023-06-22T03:32:19;9.57;;;8.55;;
26530;SDS011;14201;43.188;24.160;2023-06-22T03:34:44;10.00;;;8.07;;
26530;SDS011;14201;43.188;24.160;2023-06-22T03:37:14;38.45;;;8.40;;
26530;SDS011;14201;43.188;24.160;2023-06-22T03:39:40;11.63;;;7.78;;
26530;SDS011;14201;43.188;24.160;2023-06-22T03:42:06;11.65;;;8.48;;
26530;SDS011;14201;43.188;24.160;2023-06-22T03:44:32;8.73;;;7.82;;
26530;SDS011;14201;43.188;24.160;2023-06-22T03:46:57;10.05;;;8.15;;
26530;SDS011;14201;43.188;24.160;2023-06-22T03:49:23;8.98;;;7.70;;
26530;SDS011;14201;43.188;24.160;2023-06-22T03:51:48;11.13;;;7.90;;
26530;SDS011;14201;43.188;24.160;2023-06-22T03:54:14;9.88;;;7.68;;
26530;SDS011;14201;43.188;24.160;2023-06-22T03:56:39;11.75;;;7.90;;
26530;SDS011;14201;43.188;24.160;2023-06-22T03:59:05;12.35;;;8.35;;
26530;SDS011;14201;43.188;24.160;2023-06-22T04:01:31;9.45;;;8.45;;
26530;SDS011;14201;43.188;24.160;2023-06-22T04:03:56;10.98;;;8.30;;
26530;SDS011;14201;43.188;24.160;2023-06-22T04:06:22;13.68;;;8.50;;
26530;SDS011;14201;43.188;24.160;2023-06-22T04:08:47;13.57;;;8.55;;
26530;SDS011;14201;43.188;24.160;2023-06-22T04:11:16;11.82;;;8.13;;
26530;SDS011;14201;43.188;24.160;2023-06-22T04:13:44;10.88;;;8.52;;
26530;SDS011;14201;43.188;24.160;2023-06-22T04:16:10;11.73;;;8.48;;
26530;SDS011;14201;43.188;24.160;2023-06-22T04:18:36;10.45;;;8.18;;
26530;SDS011;14201;43.188;24.160;2023-06-22T04:21:02;13.10;;;8.88;;
26530;SDS011;14201;43.188;24.160;2023-06-22T04:23:28;10.85;;;8.70;;
26530;SDS011;14201;43.188;24.160;2023-06-22T04:25:53;12.25;;;8.02;;
26530;SDS011;14201;43.188;24.160;2023-06-22T04:28:21;10.32;;;8.48;;
26530;SDS011;14201;43.188;24.160;2023-06-22T04:30:47;11.50;;;8.75;;
26530;SDS011;14201;43.188;24.160;2023-06-22T04:33:14;12.38;;;8.50;;
26530;SDS011;14201;43.188;24.160;2023-06-22T04:35:40;11.38;;;8.45;;
26530;SDS011;14201;43.188;24.160;2023-06-22T04:38:08;9.32;;;8.40;;
26530;SDS011;14201;43.188;24.160;2023-06-22T04:40:34;10.38;;;8.25;;
26530;SDS011;14201;43.188;24.160;2023-06-22T04:43:00;10.05;;;7.57;;
26530;SDS011;14201;43.188;24.160;2023-06-22T04:45:28;8.73;;;7.80;;
26530;SDS011;14201;43.188;24.160;2023-06-22T04:47:57;12.07;;;7.97;;
26530;SDS011;14201;43.188;24.160;2023-06-22T04:50:22;9.00;;;8.15;;
26530;SDS011;14201;43.188;24.160;2023-06-22T04:52:49;8.50;;;7.60;;
26530;SDS011;14201;43.188;24.160;2023-06-22T04:55:15;9.93;;;8.07;;
26530;SDS011;14201;43.188;24.160;2023-06-22T04:57:48;10.73;;;7.55;;
26530;SDS011;14201;43.188;24.160;2023-06-22T05:00:22;10.23;;;7.13;;
26530;SDS011;14201;43.188;24.160;2023-06-22T05:02:48;10.68;;;7.35;;
26530;SDS011;14201;43.188;24.160;2023-06-22T05:05:14;9.15;;;7.18;;
26530;SDS011;14201;43.188;24.160;2023-06-22T05:07:46;11.05;;;7.65;;
26530;SDS011;14201;43.188;24.160;2023-06-22T05:10:16;11.85;;;8.13;;
26530;SDS011;14201;43.188;24.160;2023-06-22T05:12:41;9.82;;;7.50;;
26530;SDS011;14201;43.188;24.160;2023-06-22T05:15:07;11.10;;;7.22;;
26530;SDS011;14201;43.188;24.160;2023-06-22T05:17:34;9.48;;;7.63;;
26530;SDS011;14201;43.188;24.160;2023-06-22T05:20:00;9.18;;;7.30;;
26530;SDS011;14201;43.188;24.160;2023-06-22T05:22:26;10.20;;;7.55;;
26530;SDS011;14201;43.188;24.160;2023-06-22T05:24:52;11.27;;;7.03;;
26530;SDS011;14201;43.188;24.160;2023-06-22T05:27:20;9.20;;;7.25;;
26530;SDS011;14201;43.188;24.160;2023-06-22T05:29:46;8.90;;;7.15;;
26530;SDS011;14201;43.188;24.160;2023-06-22T05:32:12;8.57;;;7.68;;
26530;SDS011;14201;43.188;24.160;2023-06-22T05:34:38;9.77;;;6.97;;
26530;SDS011;14201;43.188;24.160;2023-06-22T05:37:03;8.32;;;7.25;;
26530;SDS011;14201;43.188;24.160;2023-06-22T05:39:29;9.55;;;7.30;;
26530;SDS011;14201;43.188;24.160;2023-06-22T05:41:55;9.23;;;6.80;;
26530;SDS011;14201;43.188;24.160;2023-06-22T05:44:21;7.10;;;6.38;;
26530;SDS011;14201;43.188;24.160;2023-06-22T05:46:46;8.73;;;6.70;;
26530;SDS011;14201;43.188;24.160;2023-06-22T05:49:13;13.15;;;6.80;;
26530;SDS011;14201;43.188;24.160;2023-06-22T05:51:39;9.27;;;6.78;;
26530;SDS011;14201;43.188;24.160;2023-06-22T05:54:05;9.18;;;6.20;;
26530;SDS011;14201;43.188;24.160;2023-06-22T05:56:33;13.95;;;6.15;;
26530;SDS011;14201;43.188;24.160;2023-06-22T05:58:58;7.43;;;6.03;;
26530;SDS011;14201;43.188;24.160;2023-06-22T06:01:24;8.13;;;6.20;;
26530;SDS011;14201;43.188;24.160;2023-06-22T06:03:51;8.20;;;6.40;;
26530;SDS011;14201;43.188;24.160;2023-06-22T06:06:18;10.73;;;6.93;;
26530;SDS011;14201;43.188;24.160;2023-06-22T06:08:46;8.02;;;5.95;;
26530;SDS011;14201;43.188;24.160;2023-06-22T06:11:12;8.32;;;6.38;;
26530;SDS011;14201;43.188;24.160;2023-06-22T06:13:37;7.72;;;5.95;;
26530;SDS011;14201;43.188;24.160;2023-06-22T06:16:03;11.90;;;5.93;;
26530;SDS011;14201;43.188;24.160;2023-06-22T06:18:29;7.97;;;6.90;;
26530;SDS011;14201;43.188;24.160;2023-06-22T06:20:54;7.22;;;5.97;;
26530;SDS011;14201;43.188;24.160;2023-06-22T06:23:20;6.80;;;6.10;;
26530;SDS011;14201;43.188;24.160;2023-06-22T06:25:45;6.93;;;6.05;;
26530;SDS011;14201;43.188;24.160;2023-06-22T06:28:11;6.43;;;5.72;;
26530;SDS011;14201;43.188;24.160;2023-06-22T06:30:37;7.32;;;5.90;;
26530;SDS011;14201;43.188;24.160;2023-06-22T06:33:03;8.02;;;5.40;;
26530;SDS011;14201;43.188;24.160;2023-06-22T06:35:33;7.70;;;5.55;;
26530;SDS011;14201;43.188;24.160;2023-06-22T06:37:59;9.30;;;5.90;;
26530;SDS011;14201;43.188;24.160;2023-06-22T06:40:25;7.93;;;5.88;;
26530;SDS011;14201;43.188;24.160;2023-06-22T06:42:50;6.50;;;5.20;;
26530;SDS011;14201;43.188;24.160;2023-06-22T06:45:19;6.60;;;5.18;;
26530;SDS011;14201;43.188;24.160;2023-06-22T06:47:47;8.63;;;5.85;;
26530;SDS011;14201;43.188;24.160;2023-06-22T06:50:14;6.75;;;5.45;;
26530;SDS011;14201;43.188;24.160;2023-06-22T06:52:39;8.68;;;5.90;;
26530;SDS011;14201;43.188;24.160;2023-06-22T07:08:27;7.68;;;4.85;;
26530;SDS011;14201;43.188;24.160;2023-06-22T07:10:53;7.65;;;5.18;;
26530;SDS011;14201;43.188;24.160;2023-06-22T07:13:19;6.55;;;5.40;;
26530;SDS011;14201;43.188;24.160;2023-06-22T07:15:45;6.53;;;5.68;;
26530;SDS011;14201;43.188;24.160;2023-06-22T07:18:10;7.63;;;5.57;;
26530;SDS011;14201;43.188;24.160;2023-06-22T07:20:36;6.80;;;5.10;;
26530;SDS011;14201;43.188;24.160;2023-06-22T07:23:02;7.00;;;5.38;;
26530;SDS011;14201;43.188;24.160;2023-06-22T07:25:28;5.55;;;5.05;;
26530;SDS011;14201;43.188;24.160;2023-06-22T07:30:24;6.93;;;5.53;;
26530;SDS011;14201;43.188;24.160;2023-06-22T07:32:49;7.32;;;5.00;;
26530;SDS011;14201;43.188;24.160;2023-06-22T07:35:15;6.35;;;5.28;;
26530;SDS011;14201;43.188;24.160;2023-06-22T07:37:42;6.82;;;5.35;;
26530;SDS011;14201;43.188;24.160;2023-06-22T07:40:08;7.28;;;5.20;;
26530;SDS011;14201;43.188;24.160;2023-06-22T07:42:34;10.50;;;5.63;;
26530;SDS011;14201;43.188;24.160;2023-06-22T07:45:00;7.03;;;6.13;;
26530;SDS011;14201;43.188;24.160;2023-06-22T07:47:26;9.63;;;6.07;;
26530;SDS011;14201;43.188;24.160;2023-06-22T07:49:54;6.90;;;5.90;;
26530;SDS011;14201;43.188;24.160;2023-06-22T07:52:20;8.55;;;5.97;;
26530;SDS011;14201;43.188;24.160;2023-06-22T07:54:47;8.40;;;6.20;;
26530;SDS011;14201;43.188;24.160;2023-06-22T07:57:12;8.02;;;6.38;;
26530;SDS011;14201;43.188;24.160;2023-06-22T07:59:38;11.45;;;6.00;;
26530;SDS011;14201;43.188;24.160;2023-06-22T08:02:04;9.52;;;6.40;;
26530;SDS011;14201;43.188;24.160;2023-06-22T08:04:30;9.68;;;6.28;;
26530;SDS011;14201;43.188;24.160;2023-06-22T08:06:59;10.93;;;6.88;;
26530;SDS011;14201;43.188;24.160;2023-06-22T08:09:24;11.73;;;6.50;;
26530;SDS011;14201;43.188;24.160;2023-06-22T08:11:50;7.57;;;6.78;;
26530;SDS011;14201;43.188;24.160;2023-06-22T08:14:15;12.90;;;6.88;;
26530;SDS011;14201;43.188;24.160;2023-06-22T08:16:41;12.90;;;6.40;;
26530;SDS011;14201;43.188;24.160;2023-06-22T08:19:07;9.18;;;7.03;;
26530;SDS011;14201;43.188;24.160;2023-06-22T08:21:33;7.95;;;6.95;;
26530;SDS011;14201;43.188;24.160;2023-06-22T08:23:58;7.70;;;6.63;;
26530;SDS011;14201;43.188;24.160;2023-06-22T08:26:24;8.98;;;6.90;;
26530;SDS011;14201;43.188;24.160;2023-06-22T08:28:49;11.85;;;7.57;;
26530;SDS011;14201;43.188;24.160;2023-06-22T08:31:16;9.48;;;6.95;;
26530;SDS011;14201;43.188;24.160;2023-06-22T08:33:41;7.50;;;6.63;;
26530;SDS011;14201;43.188;24.160;2023-06-22T08:36:10;9.63;;;6.70;;
26530;SDS011;14201;43.188;24.160;2023-06-22T08:38:38;11.35;;;7.22;;
26530;SDS011;14201;43.188;24.160;2023-06-22T08:41:03;10.32;;;7.72;;
26530;SDS011;14201;43.188;24.160;2023-06-22T08:43:29;11.05;;;6.68;;
26530;SDS011;14201;43.188;24.160;2023-06-22T08:45:55;9.00;;;6.88;;
26530;SDS011;14201;43.188;24.160;2023-06-22T08:48:20;12.40;;;7.35;;
26530;SDS011;14201;43.188;24.160;2023-06-22T08:50:46;12.98;;;6.78;;
26530;SDS011;14201;43.188;24.160;2023-06-22T08:53:11;10.70;;;7.00;;
26530;SDS011;14201;43.188;24.160;2023-06-22T08:55:38;9.32;;;7.05;;
26530;SDS011;14201;43.188;24.160;2023-06-22T08:58:03;12.82;;;6.50;;
26530;SDS011;14201;43.188;24.160;2023-06-22T09:00:29;13.70;;;6.93;;
26530;SDS011;14201;43.188;24.160;2023-06-22T09:02:57;10.07;;;6.03;;
26530;SDS011;14201;43.188;24.160;2023-06-22T09:05:24;9.98;;;6.60;;
26530;SDS011;14201;43.188;24.160;2023-06-22T09:07:52;7.45;;;6.75;;
26530;SDS011;14201;43.188;24.160;2023-06-22T09:10:21;9.25;;;6.30;;
26530;SDS011;14201;43.188;24.160;2023-06-22T09:12:46;7.88;;;6.28;;
26530;SDS011;14201;43.188;24.160;2023-06-22T09:15:12;15.82;;;7.10;;
26530;SDS011;14201;43.188;24.160;2023-06-22T09:17:38;9.13;;;6.03;;
26530;SDS011;14201;43.188;24.160;2023-06-22T09:20:04;11.57;;;7.00;;
26530;SDS011;14201;43.188;24.160;2023-06-22T09:22:31;11.13;;;6.80;;
26530;SDS011;14201;43.188;24.160;2023-06-22T09:24:57;6.70;;;6.03;;
26530;SDS011;14201;43.188;24.160;2023-06-22T09:27:23;10.80;;;6.20;;
26530;SDS011;14201;43.188;24.160;2023-06-22T09:29:49;8.88;;;6.20;;
26530;SDS011;14201;43.188;24.160;2023-06-22T09:32:15;7.03;;;6.28;;
26530;SDS011;14201;43.188;24.160;2023-06-22T09:34:40;7.03;;;6.40;;
26530;SDS011;14201;43.188;24.160;2023-06-22T09:37:06;9.48;;;6.38;;
26530;SDS011;14201;43.188;24.160;2023-06-22T09:39:32;10.23;;;6.72;;
26530;SDS011;14201;43.188;24.160;2023-06-22T09:41:58;30.08;;;7.53;;
26530;SDS011;14201;43.188;24.160;2023-06-22T09:44:25;9.75;;;6.47;;
26530;SDS011;14201;43.188;24.160;2023-06-22T09:46:50;11.25;;;6.75;;
26530;SDS011;14201;43.188;24.160;2023-06-22T09:49:16;17.90;;;16.20;;
26530;SDS011;14201;43.188;24.160;2023-06-22T09:51:42;17.40;;;7.32;;
26530;SDS011;14201;43.188;24.160;2023-06-22T09:54:07;7.57;;;6.15;;
26530;SDS011;14201;43.188;24.160;2023-06-22T09:56:33;7.65;;;6.85;;
26530;SDS011;14201;43.188;24.160;2023-06-22T09:58:58;11.55;;;6.40;;
26530;SDS011;14201;43.188;24.160;2023-06-22T10:01:24;8.10;;;6.25;;
26530;SDS011;14201;43.188;24.160;2023-06-22T10:03:52;7.78;;;6.20;;
26530;SDS011;14201;43.188;24.160;2023-06-22T10:06:21;6.70;;;6.10;;
26530;SDS011;14201;43.188;24.160;2023-06-22T10:08:46;8.20;;;6.78;;
26530;SDS011;14201;43.188;24.160;2023-06-22T10:11:13;6.93;;;6.15;;
26530;SDS011;14201;43.188;24.160;2023-06-22T10:13:39;7.20;;;6.47;;
26530;SDS011;14201;43.188;24.160;2023-06-22T10:16:04;8.27;;;6.05;;
26530;SDS011;14201;43.188;24.160;2023-06-22T10:18:30;6.43;;;5.65;;
26530;SDS011;14201;43.188;24.160;2023-06-22T10:20:56;6.30;;;5.65;;
26530;SDS011;14201;43.188;24.160;2023-06-22T10:23:21;8.18;;;5.68;;
26530;SDS011;14201;43.188;24.160;2023-06-22T10:25:47;6.97;;;6.35;;
26530;SDS011;14201;43.188;24.160;2023-06-22T10:28:13;9.07;;;6.35;;
26530;SDS011;14201;43.188;24.160;2023-06-22T10:30:39;7.53;;;6.45;;
26530;SDS011;14201;43.188;24.160;2023-06-22T10:33:10;10.73;;;6.80;;
26530;SDS011;14201;43.188;24.160;2023-06-22T10:35:37;63.50;;;8.63;;
26530;SDS011;14201;43.188;24.160;2023-06-22T10:38:04;9.05;;;6.45;;
26530;SDS011;14201;43.188;24.160;2023-06-22T10:40:30;10.23;;;6.47;;
26530;SDS011;14201;43.188;24.160;2023-06-22T10:42:56;6.53;;;5.93;;
26530;SDS011;14201;43.188;24.160;2023-06-22T10:45:21;7.07;;;6.38;;
26530;SDS011;14201;43.188;24.160;2023-06-22T10:47:47;8.88;;;5.80;;
26530;SDS011;14201;43.188;24.160;2023-06-22T10:50:13;6.90;;;6.18;;
26530;SDS011;14201;43.188;24.160;2023-06-22T10:52:39;7.55;;;5.93;;
26530;SDS011;14201;43.188;24.160;2023-06-22T10:55:06;12.27;;;7.13;;
26530;SDS011;14201;43.188;24.160;2023-06-22T10:57:33;7.38;;;6.00;;
26530;SDS011;14201;43.188;24.160;2023-06-22T10:59:58;6.97;;;6.30;;
26530;SDS011;14201;43.188;24.160;2023-06-22T11:02:24;11.13;;;6.55;;
26530;SDS011;14201;43.188;24.160;2023-06-22T11:04:50;7.25;;;6.05;;
26530;SDS011;14201;43.188;24.160;2023-06-22T11:07:15;9.05;;;6.55;;
26530;SDS011;14201;43.188;24.160;2023-06-22T11:09:42;11.25;;;6.20;;
26530;SDS011;14201;43.188;24.160;2023-06-22T11:12:08;7.40;;;6.70;;
26530;SDS011;14201;43.188;24.160;2023-06-22T11:14:34;8.52;;;6.63;;
26530;SDS011;14201;43.188;24.160;2023-06-22T11:17:00;7.38;;;6.00;;
26530;SDS011;14201;43.188;24.160;2023-06-22T11:19:25;11.55;;;6.15;;
26530;SDS011;14201;43.188;24.160;2023-06-22T11:21:51;9.02;;;6.72;;
26530;SDS011;14201;43.188;24.160;2023-06-22T11:24:17;7.30;;;6.60;;
26530;SDS011;14201;43.188;24.160;2023-06-22T11:26:43;16.08;;;7.03;;
26530;SDS011;14201;43.188;24.160;2023-06-22T11:29:08;17.38;;;7.30;;
26530;SDS011;14201;43.188;24.160;2023-06-22T11:31:34;12.20;;;7.05;;
26530;SDS011;14201;43.188;24.160;2023-06-22T11:34:01;8.60;;;7.07;;
26530;SDS011;14201;43.188;24.160;2023-06-22T11:36:27;8.05;;;7.25;;
26530;SDS011;14201;43.188;24.160;2023-06-22T11:38:52;10.30;;;7.30;;
26530;SDS011;14201;43.188;24.160;2023-06-22T11:41:18;13.02;;;7.55;;
26530;SDS011;14201;43.188;24.160;2023-06-22T11:43:44;7.72;;;7.03;;
26530;SDS011;14201;43.188;24.160;2023-06-22T11:46:10;19.73;;;8.60;;
26530;SDS011;14201;43.188;24.160;2023-06-22T11:48:35;10.60;;;7.40;;
26530;SDS011;14201;43.188;24.160;2023-06-22T11:51:02;9.65;;;7.10;;
26530;SDS011;14201;43.188;24.160;2023-06-22T11:53:28;9.38;;;8.00;;
26530;SDS011;14201;43.188;24.160;2023-06-22T11:55:54;9.35;;;7.60;;
26530;SDS011;14201;43.188;24.160;2023-06-22T11:58:20;10.30;;;7.65;;
26530;SDS011;14201;43.188;24.160;2023-06-22T12:00:46;10.43;;;7.85;;
26530;SDS011;14201;43.188;24.160;2023-06-22T12:03:12;8.32;;;7.50;;
26530;SDS011;14201;43.188;24.160;2023-06-22T12:05:38;8.60;;;7.43;;
26530;SDS011;14201;43.188;24.160;2023-06-22T12:08:04;8.18;;;7.38;;
26530;SDS011;14201;43.188;24.160;2023-06-22T12:10:29;11.18;;;7.75;;
26530;SDS011;14201;43.188;24.160;2023-06-22T12:12:55;9.02;;;7.35;;
26530;SDS011;14201;43.188;24.160;2023-06-22T12:15:23;15.35;;;7.47;;
26530;SDS011;14201;43.188;24.160;2023-06-22T12:32:15;10.88;;;7.47;;
26530;SDS011;14201;43.188;24.160;2023-06-22T12:34:44;10.05;;;7.55;;
26530;SDS011;14201;43.188;24.160;2023-06-22T12:37:09;9.87;;;7.50;;
26530;SDS011;14201;43.188;24.160;2023-06-22T12:39:35;9.18;;;7.38;;
26530;SDS011;14201;43.188;24.160;2023-06-22T12:42:01;9.88;;;8.15;;
26530;SDS011;14201;43.188;24.160;2023-06-22T12:44:26;9.32;;;7.68;;
26530;SDS011;14201;43.188;24.160;2023-06-22T12:46:52;11.13;;;7.82;;
26530;SDS011;14201;43.188;24.160;2023-06-22T12:49:18;8.48;;;7.45;;
26530;SDS011;14201;43.188;24.160;2023-06-22T12:51:44;9.95;;;7.28;;
26530;SDS011;14201;43.188;24.160;2023-06-22T12:54:10;8.10;;;7.20;;
26530;SDS011;14201;43.188;24.160;2023-06-22T12:56:37;11.20;;;6.80;;
26530;SDS011;14201;43.188;24.160;2023-06-22T12:59:03;8.32;;;7.40;;
26530;SDS011;14201;43.188;24.160;2023-06-22T13:01:30;8.85;;;7.03;;
26530;SDS011;14201;43.188;24.160;2023-06-22T13:03:57;10.18;;;8.02;;
26530;SDS011;14201;43.188;24.160;2023-06-22T13:06:23;10.23;;;7.90;;
26530;SDS011;14201;43.188;24.160;2023-06-22T13:08:49;8.65;;;6.88;;
26530;SDS011;14201;43.188;24.160;2023-06-22T13:11:15;41.25;;;7.80;;
26530;SDS011;14201;43.188;24.160;2023-06-22T13:13:40;10.65;;;6.65;;
26530;SDS011;14201;43.188;24.160;2023-06-22T13:16:06;8.27;;;7.43;;
26530;SDS011;14201;43.188;24.160;2023-06-22T13:18:32;10.52;;;7.07;;
26530;SDS011;14201;43.188;24.160;2023-06-22T13:21:01;9.60;;;6.88;;
26530;SDS011;14201;43.188;24.160;2023-06-22T13:23:27;9.75;;;7.35;;
26530;SDS011;14201;43.188;24.160;2023-06-22T13:25:52;10.13;;;6.65;;
26530;SDS011;14201;43.188;24.160;2023-06-22T13:28:18;7.55;;;6.70;;
26530;SDS011;14201;43.188;24.160;2023-06-22T13:30:45;7.88;;;6.45;;
26530;SDS011;14201;43.188;24.160;2023-06-22T13:33:15;20.98;;;7.57;;
26530;SDS011;14201;43.188;24.160;2023-06-22T13:35:41;9.63;;;6.72;;
26530;SDS011;14201;43.188;24.160;2023-06-22T13:38:08;8.02;;;6.40;;
26530;SDS011;14201;43.188;24.160;2023-06-22T13:40:34;8.55;;;6.45;;
26530;SDS011;14201;43.188;24.160;2023-06-22T13:43:00;8.45;;;6.57;;
26530;SDS011;14201;43.188;24.160;2023-06-22T13:45:26;6.85;;;6.25;;
26530;SDS011;14201;43.188;24.160;2023-06-22T13:47:52;8.00;;;6.72;;
26530;SDS011;14201;43.188;24.160;2023-06-22T13:50:18;8.40;;;6.57;;
26530;SDS011;14201;43.188;24.160;2023-06-22T13:52:44;11.15;;;6.90;;
26530;SDS011;14201;43.188;24.160;2023-06-22T13:55:10;7.20;;;6.50;;
26530;SDS011;14201;43.188;24.160;2023-06-22T13:57:36;9.65;;;6.22;;
26530;SDS011;14201;43.188;24.160;2023-06-22T14:00:03;7.47;;;6.38;;
26530;SDS011;14201;43.188;24.160;2023-06-22T14:02:33;14.57;;;7.65;;
26530;SDS011;14201;43.188;24.160;2023-06-22T14:05:02;8.55;;;6.28;;
26530;SDS011;14201;43.188;24.160;2023-06-22T14:07:28;8.23;;;6.57;;
26530;SDS011;14201;43.188;24.160;2023-06-22T14:09:53;8.40;;;6.82;;
26530;SDS011;14201;43.188;24.160;2023-06-22T14:12:20;7.90;;;7.07;;
26530;SDS011;14201;43.188;24.160;2023-06-22T14:14:46;8.02;;;6.93;;
26530;SDS011;14201;43.188;24.160;2023-06-22T14:17:11;9.30;;;6.65;;
26530;SDS011;14201;43.188;24.160;2023-06-22T14:19:37;7.20;;;6.50;;
26530;SDS011;14201;43.188;24.160;2023-06-22T14:22:03;15.82;;;6.82;;
26530;SDS011;14201;43.188;24.160;2023-06-22T14:24:28;8.13;;;6.45;;
26530;SDS011;14201;43.188;24.160;2023-06-22T14:26:54;8.20;;;6.82;;
26530;SDS011;14201;43.188;24.160;2023-06-22T14:29:21;11.63;;;7.38;;
26530;SDS011;14201;43.188;24.160;2023-06-22T14:31:47;7.80;;;7.05;;
26530;SDS011;14201;43.188;24.160;2023-06-22T14:34:13;7.35;;;6.47;;
26530;SDS011;14201;43.188;24.160;2023-06-22T14:36:39;8.98;;;7.10;;
26530;SDS011;14201;43.188;24.160;2023-06-22T14:39:05;9.45;;;7.22;;
26530;SDS011;14201;43.188;24.160;2023-06-22T14:41:30;13.95;;;7.55;;
26530;SDS011;14201;43.188;24.160;2023-06-22T14:43:56;12.70;;;7.18;;
26530;SDS011;14201;43.188;24.160;2023-06-22T14:46:22;21.20;;;7.78;;
26530;SDS011;14201;43.188;24.160;2023-06-22T14:48:48;8.13;;;6.85;;
26530;SDS011;14201;43.188;24.160;2023-06-22T14:51:13;8.38;;;6.50;;
26530;SDS011;14201;43.188;24.160;2023-06-22T14:53:39;9.18;;;6.93;;
26530;SDS011;14201;43.188;24.160;2023-06-22T14:56:05;8.85;;;6.65;;
26530;SDS011;14201;43.188;24.160;2023-06-22T14:58:31;9.65;;;7.20;;
26530;SDS011;14201;43.188;24.160;2023-06-22T15:01:03;9.45;;;7.72;;
26530;SDS011;14201;43.188;24.160;2023-06-22T15:03:31;7.53;;;6.82;;
26530;SDS011;14201;43.188;24.160;2023-06-22T15:05:57;11.15;;;7.60;;